Time;durP1;ratioP1;P1;durP2;ratioP2;P2;SDS_P1;SDS_P2;PMS_P1;PMS_P2;Temp;Humidity;BMP_temperature;BMP_pressure;BME280_temperature;BME280_humidity;BME280_pressure;Samples;Min_cycle;Max_cycle;Signal;HPM_P1;HPM_P2
2023/05/28 00:02:09;;;;;;;8.55;5.82;;;24.90;99.90;;;;;;5045724;22;20084;-49
2023/05/28 00:04:35;;;;;;;7.30;5.20;;;24.80;99.90;;;;;;5032828;28;20025;-49
2023/05/28 00:07:02;;;;;;;8.15;5.45;;;24.90;99.90;;;;;;5033201;28;20021;-50
2023/05/28 00:09:28;;;;;;;6.07;4.95;;;24.80;99.90;;;;;;5032786;28;20030;-49
2023/05/28 00:11:55;;;;;;;5.88;4.53;;;24.80;99.90;;;;;;5032895;28;20144;-49
2023/05/28 00:14:21;;;;;;;;;;;24.90;99.90;;;;;;5033535;28;20106;-49
2023/05/28 00:16:47;;;;;;;7.05;4.72;;;24.80;99.90;;;;;;5032994;28;20222;-50
2023/05/28 00:19:13;;;;;;;5.95;4.68;;;24.90;99.90;;;;;;5032958;28;20389;-50
2023/05/28 00:21:38;;;;;;;9.85;5.57;;;24.90;99.90;;;;;;5032862;28;20051;-50
2023/05/28 00:24:05;;;;;;;6.78;5.00;;;24.80;99.90;;;;;;5032603;28;20038;-50
2023/05/28 00:26:31;;;;;;;7.78;5.07;;;24.80;99.90;;;;;;5032887;28;20501;-50
2023/05/28 00:28:56;;;;;;;5.38;4.65;;;24.80;99.90;;;;;;5032654;28;20029;-51
2023/05/28 00:31:22;;;;;;;8.43;5.10;;;24.80;99.90;;;;;;5031216;28;20022;-51
2023/05/28 00:33:48;;;;;;;5.75;4.63;;;24.80;99.90;;;;;;5033111;28;20033;-51
2023/05/28 00:36:14;;;;;;;5.88;5.28;;;24.80;99.90;;;;;;5032978;28;20100;-51
2023/05/28 00:38:40;;;;;;;5.13;4.55;;;24.80;99.90;;;;;;5032908;28;20057;-51
2023/05/28 00:41:06;;;;;;;5.30;4.57;;;24.80;99.90;;;;;;5032667;28;20096;-51
2023/05/28 00:43:32;;;;;;;6.35;4.65;;;24.80;99.90;;;;;;5032891;28;20025;-50
2023/05/28 00:46:01;;;;;;;5.93;4.65;;;24.80;99.90;;;;;;5032681;28;20024;-50
2023/05/28 00:48:27;;;;;;;7.18;5.00;;;24.80;99.90;;;;;;5032796;28;20026;-50
2023/05/28 00:50:53;;;;;;;5.43;4.50;;;24.80;99.90;;;;;;5032795;28;20367;-50
2023/05/28 00:53:19;;;;;;;6.43;4.97;;;24.80;99.90;;;;;;5033798;28;20021;-50
2023/05/28 00:55:47;;;;;;;6.28;4.68;;;24.80;99.90;;;;;;5035517;28;20041;-50
2023/05/28 00:58:15;;;;;;;6.82;5.43;;;24.80;99.90;;;;;;5036595;28;20429;-50
2023/05/28 01:00:45;;;;;;;6.35;4.80;;;24.80;99.90;;;;;;5048589;22;20097;-57
2023/05/28 01:03:12;;;;;;;5.05;4.55;;;24.80;99.90;;;;;;5034620;28;20075;-57
2023/05/28 01:05:38;;;;;;;6.75;4.93;;;24.80;99.90;;;;;;5034946;28;20018;-57
2023/05/28 01:08:09;;;;;;;6.32;4.82;;;24.80;99.90;;;;;;5036304;28;20036;-58
2023/05/28 01:10:36;;;;;;;5.68;4.57;;;24.80;99.90;;;;;;5035127;28;20489;-58
2023/05/28 01:13:04;;;;;;;7.00;5.00;;;24.70;99.90;;;;;;5035122;28;20350;-57
2023/05/28 01:15:31;;;;;;;7.03;5.10;;;24.80;99.90;;;;;;5036242;28;20127;-55
2023/05/28 01:17:59;;;;;;;5.68;4.38;;;24.80;99.90;;;;;;5036006;28;20021;-55
2023/05/28 01:20:30;;;;;;;7.10;5.20;;;24.80;99.90;;;;;;5036021;28;20037;-57
2023/05/28 01:23:00;;;;;;;6.57;4.32;;;24.70;99.90;;;;;;5036095;28;20021;-55
2023/05/28 01:25:27;;;;;;;8.02;4.50;;;24.80;99.90;;;;;;5036166;28;20104;-56
2023/05/28 01:27:53;;;;;;;5.68;4.30;;;24.70;99.90;;;;;;5035780;28;20018;-58
2023/05/28 01:30:20;;;;;;;5.67;4.67;;;24.70;99.90;;;;;;5034636;28;20477;-56
2023/05/28 01:32:46;;;;;;;5.35;4.22;;;24.70;99.90;;;;;;5035760;28;20029;-55
2023/05/28 01:35:12;;;;;;;8.00;4.97;;;24.70;99.90;;;;;;5035979;28;20014;-55
2023/05/28 01:37:43;;;;;;;7.30;4.68;;;24.70;99.90;;;;;;5035725;28;20432;-56
2023/05/28 01:40:11;;;;;;;6.05;4.50;;;24.70;99.90;;;;;;5035910;28;20393;-55
2023/05/28 01:42:37;;;;;;;7.60;5.10;;;24.70;99.90;;;;;;5035640;28;20045;-57
2023/05/28 01:45:05;;;;;;;5.20;4.47;;;24.70;99.90;;;;;;5035765;28;20075;-56
2023/05/28 01:47:31;;;;;;;;;;;24.70;99.90;;;;;;5036067;28;20022;-57
2023/05/28 01:49:57;;;;;;;7.50;5.40;;;24.70;99.90;;;;;;5035607;28;19912;-56
2023/05/28 01:52:23;;;;;;;5.80;4.47;;;24.70;99.90;;;;;;5035411;28;20018;-56
2023/05/28 01:54:48;;;;;;;8.00;4.20;;;24.70;99.90;;;;;;5035535;28;20029;-57
2023/05/28 01:57:14;;;;;;;5.53;4.40;;;24.70;99.90;;;;;;5035713;28;20025;-57
2023/05/28 01:59:40;;;;;;;6.15;4.43;;;24.70;99.90;;;;;;5034155;28;20363;-56
2023/05/28 02:02:07;;;;;;;7.03;4.38;;;24.70;99.90;;;;;;5035830;28;20175;-56
2023/05/28 02:04:33;;;;;;;5.35;4.25;;;24.70;99.90;;;;;;5035227;28;20454;-56
2023/05/28 02:06:59;;;;;;;4.93;4.32;;;24.70;99.90;;;;;;5034281;28;20036;-57
2023/05/28 02:09:24;;;;;;;6.78;4.82;;;24.70;99.90;;;;;;5035072;28;20104;-56
2023/05/28 02:11:50;;;;;;;6.28;4.72;;;24.70;99.90;;;;;;5035259;28;20028;-56
2023/05/28 02:14:16;;;;;;;6.93;4.20;;;24.70;99.90;;;;;;5035082;28;20033;-57
2023/05/28 02:16:47;;;;;;;6.28;4.53;;;24.70;99.90;;;;;;5035111;28;20022;-56
2023/05/28 02:19:14;;;;;;;5.93;4.82;;;24.70;99.90;;;;;;5035109;28;20040;-56
2023/05/28 02:21:39;;;;;;;5.78;3.95;;;24.70;99.90;;;;;;5034879;28;20025;-56
2023/05/28 02:24:06;;;;;;;5.55;4.47;;;24.70;99.90;;;;;;5035277;28;20025;-57
2023/05/28 02:26:32;;;;;;;8.07;4.55;;;24.70;99.90;;;;;;5035079;28;20060;-56
2023/05/28 02:28:57;;;;;;;5.07;4.57;;;24.70;99.90;;;;;;5034869;28;20034;-55
2023/05/28 02:31:23;;;;;;;6.90;4.80;;;24.70;99.90;;;;;;5034485;28;20021;-56
2023/05/28 02:33:49;;;;;;;4.80;4.28;;;24.60;99.90;;;;;;5034794;28;20030;-58
2023/05/28 02:36:15;;;;;;;8.55;5.40;;;24.60;99.90;;;;;;5034165;28;20021;-56
2023/05/28 02:38:41;;;;;;;6.43;4.35;;;24.60;99.90;;;;;;5034706;28;20069;-56
2023/05/28 02:41:07;;;;;;;8.38;6.38;;;24.60;99.90;;;;;;5020334;28;20385;-56
2023/05/28 02:43:33;;;;;;;6.03;4.80;;;24.60;99.90;;;;;;5034627;28;20018;-56
2023/05/28 02:45:59;;;;;;;6.20;4.70;;;24.60;99.90;;;;;;5034364;28;20024;-55
2023/05/28 02:48:25;;;;;;;11.32;7.63;;;24.60;99.90;;;;;;5034436;28;20389;-56
2023/05/28 02:50:51;;;;;;;8.32;5.95;;;24.60;99.90;;;;;;5034362;28;20021;-56
2023/05/28 02:53:22;;;;;;;7.93;6.13;;;24.60;99.90;;;;;;5034526;28;20129;-56
2023/05/28 02:55:48;;;;;;;11.02;6.88;;;24.60;99.90;;;;;;5034409;28;20027;-56
2023/05/28 02:58:14;;;;;;;10.77;6.90;;;24.60;99.90;;;;;;5034193;28;20029;-56
2023/05/28 03:00:41;;;;;;;12.07;8.68;;;24.60;99.90;;;;;;5034742;28;20045;-55
2023/05/28 03:03:08;;;;;;;12.83;8.10;;;24.60;99.90;;;;;;5034358;28;20025;-55
2023/05/28 03:05:34;;;;;;;12.68;8.85;;;24.60;99.90;;;;;;5034131;28;20029;-56
2023/05/28 03:08:00;;;;;;;12.33;8.33;;;24.60;99.90;;;;;;5034065;28;20496;-56
2023/05/28 03:10:26;;;;;;;13.43;8.23;;;24.60;99.90;;;;;;5034090;28;20029;-56
2023/05/28 03:12:52;;;;;;;10.40;7.78;;;24.60;99.90;;;;;;5033909;28;20021;-56
2023/05/28 03:15:18;;;;;;;11.52;8.40;;;24.60;99.90;;;;;;5032461;28;20026;-56
2023/05/28 03:17:44;;;;;;;11.75;8.65;;;24.60;99.90;;;;;;5033614;28;20033;-57
2023/05/28 03:20:11;;;;;;;13.52;8.68;;;24.60;99.90;;;;;;5034028;28;20120;-56
2023/05/28 03:22:37;;;;;;;10.57;8.05;;;24.60;99.90;;;;;;5033874;28;20093;-56
2023/05/28 03:25:05;;;;;;;12.70;8.13;;;24.60;99.90;;;;;;5034162;28;20355;-56
2023/05/28 03:27:31;;;;;;;;;;;24.60;99.90;;;;;;5034015;28;20105;-57
2023/05/28 03:29:57;;;;;;;12.40;9.00;;;24.60;99.90;;;;;;5033866;28;20019;-56
2023/05/28 03:32:23;;;;;;;13.93;8.50;;;24.60;99.90;;;;;;5033602;28;20033;-57
2023/05/28 03:34:49;;;;;;;12.90;9.52;;;24.50;99.90;;;;;;5033622;28;20021;-58
2023/05/28 03:37:14;;;;;;;14.20;8.52;;;24.50;99.90;;;;;;5033773;28;20091;-56
2023/05/28 03:39:41;;;;;;;11.65;8.45;;;24.50;99.90;;;;;;5033327;28;20021;-57
2023/05/28 03:42:07;;;;;;;11.90;8.65;;;24.50;99.90;;;;;;5033419;28;20025;-56
2023/05/28 03:44:34;;;;;;;10.90;8.63;;;24.50;99.90;;;;;;5033380;28;20496;-56
2023/05/28 03:47:00;;;;;;;12.17;9.07;;;24.50;99.90;;;;;;5033527;28;20109;-56
2023/05/28 03:49:26;;;;;;;11.07;8.32;;;24.50;99.90;;;;;;5033436;28;20033;-56
2023/05/28 03:51:51;;;;;;;12.20;8.98;;;24.50;99.90;;;;;;5032184;28;20378;-56
2023/05/28 03:54:17;;;;;;;11.75;8.38;;;24.50;99.90;;;;;;5033299;28;20056;-56
2023/05/28 03:56:43;;;;;;;9.82;7.63;;;24.50;99.90;;;;;;5033275;28;20026;-56
2023/05/28 03:59:08;;;;;;;10.57;7.80;;;24.50;99.90;;;;;;5033088;28;20029;-56
2023/05/28 04:01:35;;;;;;;12.73;8.05;;;24.50;99.90;;;;;;5033488;28;20076;-55
2023/05/28 04:04:02;;;;;;;10.85;8.13;;;24.50;99.90;;;;;;5033254;28;20063;-56
2023/05/28 04:06:28;;;;;;;11.38;8.48;;;24.50;99.90;;;;;;5027561;28;20040;-56
2023/05/28 04:08:55;;;;;;;11.57;8.27;;;24.50;99.90;;;;;;5033030;28;20112;-56
2023/05/28 04:11:24;;;;;;;11.73;8.07;;;24.50;99.90;;;;;;5033019;28;20032;-56
2023/05/28 04:13:53;;;;;;;10.45;7.80;;;24.50;99.90;;;;;;5032870;28;20033;-57
2023/05/28 04:16:22;;;;;;;11.32;8.00;;;24.50;99.90;;;;;;5031342;28;20092;-56
2023/05/28 04:18:49;;;;;;;11.52;8.20;;;24.50;99.90;;;;;;5032844;28;20120;-56
2023/05/28 04:21:15;;;;;;;12.85;9.13;;;24.50;99.90;;;;;;5032901;28;20032;-57
2023/05/28 04:23:40;;;;;;;10.30;7.97;;;24.50;99.90;;;;;;5032686;28;20026;-58
2023/05/28 04:26:07;;;;;;;10.60;7.90;;;24.50;99.90;;;;;;5032835;28;20473;-57
2023/05/28 04:28:33;;;;;;;11.23;7.50;;;24.50;99.90;;;;;;5032579;28;20021;-56
2023/05/28 04:31:02;;;;;;;11.30;8.30;;;24.50;99.90;;;;;;5031860;28;20102;-57
2023/05/28 04:33:31;;;;;;;11.10;8.18;;;24.50;99.90;;;;;;5032866;28;20465;-57
2023/05/28 04:36:01;;;;;;;11.95;8.40;;;24.50;99.90;;;;;;5027533;28;20413;-57
2023/05/28 04:38:33;;;;;;;11.32;7.97;;;24.40;99.90;;;;;;5031099;28;20025;-58
2023/05/28 04:41:04;;;;;;;11.85;8.80;;;24.40;99.90;;;;;;5031156;28;20113;-57
2023/05/28 04:43:30;;;;;;;12.18;8.60;;;24.40;99.90;;;;;;5032572;28;20025;-57
2023/05/28 04:45:58;;;;;;;12.35;9.27;;;24.40;99.90;;;;;;5032868;28;20075;-57
2023/05/28 04:48:25;;;;;;;;;;;24.50;99.90;;;;;;5032805;28;20072;-57
2023/05/28 04:50:51;;;;;;;11.38;9.02;;;24.40;99.90;;;;;;5031288;28;19905;-57
2023/05/28 04:53:17;;;;;;;12.93;10.20;;;24.40;99.90;;;;;;5032320;28;20029;-57
2023/05/28 04:55:44;;;;;;;12.13;8.75;;;24.40;99.90;;;;;;5032575;28;20026;-57
2023/05/28 04:58:10;;;;;;;11.90;9.00;;;24.40;99.90;;;;;;5032237;28;20036;-57
2023/05/28 05:00:36;;;;;;;12.45;9.00;;;24.40;99.90;;;;;;5032185;28;20049;-57
2023/05/28 05:03:02;;;;;;;11.10;8.70;;;24.40;99.90;;;;;;5032329;28;20026;-57
2023/05/28 05:05:28;;;;;;;11.60;9.32;;;24.40;99.90;;;;;;5030959;28;20036;-57
2023/05/28 05:07:55;;;;;;;10.82;8.90;;;24.40;99.90;;;;;;5032252;28;20132;-57
2023/05/28 05:10:21;;;;;;;12.38;9.13;;;24.40;99.90;;;;;;5032776;28;20026;-57
2023/05/28 05:12:47;;;;;;;12.02;9.75;;;24.40;99.90;;;;;;5032184;28;20377;-57
2023/05/28 05:15:13;;;;;;;11.80;8.80;;;24.40;99.90;;;;;;5032459;28;20035;-57
2023/05/28 05:17:39;;;;;;;12.13;9.02;;;24.40;99.90;;;;;;5020480;28;20523;-57
2023/05/28 05:20:06;;;;;;;9.82;8.18;;;24.40;99.90;;;;;;5031754;28;20488;-57
2023/05/28 05:22:32;;;;;;;12.48;8.90;;;24.30;99.90;;;;;;5032386;28;20021;-56
2023/05/28 05:24:57;;;;;;;11.05;8.52;;;24.30;99.90;;;;;;5032150;28;20452;-57
2023/05/28 05:27:23;;;;;;;10.70;8.57;;;24.30;99.90;;;;;;5032434;28;20112;-57
2023/05/28 05:29:49;;;;;;;10.80;8.15;;;24.30;99.90;;;;;;5032043;28;20029;-57
2023/05/28 05:32:15;;;;;;;11.80;8.68;;;24.30;99.90;;;;;;5032079;28;20030;-57
2023/05/28 05:34:40;;;;;;;11.90;9.60;;;24.30;99.90;;;;;;5031957;28;20114;-57
2023/05/28 05:37:06;;;;;;;11.90;8.32;;;24.30;99.90;;;;;;5032220;28;20014;-57
2023/05/28 05:39:32;;;;;;;10.75;8.15;;;24.40;99.90;;;;;;5031862;28;20061;-58
2023/05/28 05:41:59;;;;;;;11.93;8.85;;;24.30;99.90;;;;;;5033642;28;20481;-57
2023/05/28 05:44:25;;;;;;;10.95;8.63;;;24.30;99.90;;;;;;5035533;28;20037;-57
2023/05/28 05:46:51;;;;;;;10.10;8.00;;;24.30;99.90;;;;;;5035646;28;20108;-57
2023/05/28 05:49:17;;;;;;;11.77;8.82;;;24.30;99.90;;;;;;5034897;28;20096;-59
2023/05/28 05:51:42;;;;;;;11.90;9.05;;;24.30;99.90;;;;;;5035729;28;20369;-59
2023/05/28 05:54:08;;;;;;;11.85;7.90;;;24.30;99.90;;;;;;5035300;28;20029;-58
2023/05/28 05:56:34;;;;;;;12.05;8.30;;;24.30;99.90;;;;;;5035466;28;20018;-58
2023/05/28 05:59:00;;;;;;;12.02;8.07;;;24.30;99.90;;;;;;5032813;28;20026;-58
2023/05/28 06:01:26;;;;;;;9.30;7.55;;;24.30;99.90;;;;;;5034294;28;20148;-57
2023/05/28 06:03:52;;;;;;;10.60;8.10;;;24.30;99.90;;;;;;5033136;28;20456;-58
2023/05/28 06:06:18;;;;;;;12.77;7.90;;;24.30;99.90;;;;;;5032874;28;20030;-57
2023/05/28 06:08:43;;;;;;;11.98;7.63;;;24.30;99.90;;;;;;5033995;28;20535;-58
2023/05/28 06:11:09;;;;;;;13.23;8.68;;;24.30;99.90;;;;;;5035170;28;20021;-57
2023/05/28 06:13:36;;;;;;;13.82;8.30;;;24.30;99.90;;;;;;5035178;28;20438;-57
2023/05/28 06:16:06;;;;;;;12.45;7.68;;;24.30;99.90;;;;;;5035047;28;20053;-58
2023/05/28 06:18:32;;;;;;;10.15;7.82;;;24.30;99.90;;;;;;5035179;28;20032;-57
2023/05/28 06:20:58;;;;;;;10.57;7.50;;;24.30;99.90;;;;;;5035115;28;20021;-57
2023/05/28 06:23:23;;;;;;;10.65;7.78;;;24.30;99.90;;;;;;5034965;28;20024;-57
2023/05/28 06:25:50;;;;;;;8.82;7.57;;;24.30;99.90;;;;;;5033441;28;20061;-57
2023/05/28 06:28:16;;;;;;;9.45;7.50;;;24.30;99.90;;;;;;5034928;28;20528;-57
2023/05/28 06:30:41;;;;;;;11.43;7.93;;;24.30;99.90;;;;;;5034722;28;20026;-57
2023/05/28 06:33:08;;;;;;;13.77;7.72;;;24.30;99.90;;;;;;5034477;28;20473;-57
2023/05/28 06:35:35;;;;;;;8.82;7.13;;;24.30;99.90;;;;;;5034968;28;20026;-56
2023/05/28 06:38:01;;;;;;;11.15;7.70;;;24.30;99.90;;;;;;5034878;28;20425;-57
2023/05/28 06:40:27;;;;;;;9.30;7.25;;;24.30;99.90;;;;;;5034464;28;20033;-57
2023/05/28 06:42:52;;;;;;;10.82;7.53;;;24.30;99.90;;;;;;5034611;28;20481;-57
2023/05/28 06:45:18;;;;;;;9.38;7.45;;;24.30;99.90;;;;;;5034722;28;20031;-57
2023/05/28 06:47:45;;;;;;;11.25;8.23;;;24.30;99.90;;;;;;5034448;28;20113;-56
2023/05/28 06:50:11;;;;;;;10.43;8.15;;;24.30;99.90;;;;;;5034715;28;20025;-56
2023/05/28 06:52:37;;;;;;;9.95;7.45;;;24.30;99.90;;;;;;5034016;28;20056;-56
2023/05/28 06:55:05;;;;;;;7.88;6.95;;;24.30;99.90;;;;;;5034422;28;20079;-56
2023/05/28 06:57:32;;;;;;;8.82;6.88;;;24.30;99.90;;;;;;5034620;28;20029;-57
2023/05/28 06:59:58;;;;;;;;;;;24.30;99.90;;;;;;5034445;28;20037;-57
2023/05/28 07:02:25;;;;;;;10.18;7.68;;;24.30;99.90;;;;;;5034289;28;19921;-57
2023/05/28 07:04:51;;;;;;;8.68;6.85;;;24.30;99.90;;;;;;5034011;28;20053;-57
2023/05/28 07:07:17;;;;;;;8.48;6.65;;;24.30;99.90;;;;;;5034295;28;20068;-58
2023/05/28 07:09:43;;;;;;;9.30;6.90;;;24.30;99.90;;;;;;5034024;28;20035;-57
2023/05/28 07:12:08;;;;;;;9.23;7.05;;;24.30;99.90;;;;;;5034227;28;20018;-57
2023/05/28 07:14:34;;;;;;;8.65;6.40;;;24.30;99.90;;;;;;5026870;28;20037;-57
2023/05/28 07:17:00;;;;;;;9.98;6.90;;;24.30;99.90;;;;;;5034074;28;20018;-57
2023/05/28 07:19:26;;;;;;;9.40;6.63;;;24.30;99.90;;;;;;5033849;28;20138;-57
2023/05/28 07:21:52;;;;;;;8.93;6.63;;;24.30;99.90;;;;;;5033682;28;20021;-56
2023/05/28 07:24:17;;;;;;;8.02;6.40;;;24.30;99.90;;;;;;5033872;28;20108;-57
2023/05/28 07:26:44;;;;;;;8.85;7.30;;;24.30;99.90;;;;;;5033697;28;20470;-57
2023/05/28 07:29:13;;;;;;;8.73;6.35;;;24.40;99.90;;;;;;5033803;28;20024;-57
2023/05/28 07:31:38;;;;;;;8.50;6.28;;;24.30;99.90;;;;;;5033714;28;20036;-57
2023/05/28 07:34:05;;;;;;;8.45;5.97;;;24.40;99.90;;;;;;5033594;28;20026;-57
2023/05/28 07:36:31;;;;;;;7.95;6.05;;;24.40;99.90;;;;;;5033629;28;20413;-57
2023/05/28 07:38:57;;;;;;;7.05;5.85;;;24.40;99.90;;;;;;5033552;28;20100;-57
2023/05/28 07:41:23;;;;;;;8.48;6.30;;;24.30;99.90;;;;;;5033345;28;20128;-57
2023/05/28 07:43:48;;;;;;;8.45;6.40;;;24.30;99.90;;;;;;5033565;28;20057;-57
2023/05/28 07:46:16;;;;;;;9.13;5.75;;;24.30;99.90;;;;;;5033253;28;20052;-57
2023/05/28 07:48:43;;;;;;;8.35;5.93;;;24.40;99.90;;;;;;5033384;28;20116;-57
2023/05/28 07:51:10;;;;;;;9.07;7.35;;;24.40;99.90;;;;;;5033428;28;20486;-57
2023/05/28 07:53:36;;;;;;;7.20;6.05;;;24.30;99.90;;;;;;5033236;28;20026;-56
2023/05/28 07:56:02;;;;;;;7.43;5.40;;;24.40;99.90;;;;;;5033121;28;20100;-58
2023/05/28 07:58:28;;;;;;;7.53;6.00;;;24.30;99.90;;;;;;5033095;28;20027;-57
2023/05/28 08:00:54;;;;;;;8.45;6.07;;;24.40;99.90;;;;;;5032979;28;20556;-58
2023/05/28 08:03:19;;;;;;;8.45;6.60;;;24.40;99.90;;;;;;5033157;28;20048;-57
2023/05/28 08:05:45;;;;;;;7.00;5.90;;;24.40;99.90;;;;;;5032396;28;20033;-58
2023/05/28 08:08:11;;;;;;;7.93;6.00;;;24.40;99.90;;;;;;5032891;28;20377;-57
2023/05/28 08:10:37;;;;;;;7.07;5.80;;;24.40;99.90;;;;;;5032975;28;20037;-58
2023/05/28 08:13:02;;;;;;;8.23;5.78;;;24.40;99.90;;;;;;5032859;28;20022;-58
2023/05/28 08:15:28;;;;;;;7.40;5.85;;;24.40;99.90;;;;;;5032931;28;20104;-58
2023/05/28 08:17:54;;;;;;;7.63;6.03;;;24.40;99.90;;;;;;5033075;28;20021;-58
2023/05/28 08:20:22;;;;;;;7.35;6.00;;;24.40;99.90;;;;;;5019941;28;20126;-58
2023/05/28 08:22:48;;;;;;;7.05;5.63;;;24.40;99.90;;;;;;5032707;28;20017;-58
2023/05/28 08:25:14;;;;;;;9.80;5.70;;;24.40;99.90;;;;;;5033003;28;20029;-58
2023/05/28 08:27:40;;;;;;;8.35;5.70;;;24.40;99.90;;;;;;5033030;28;20021;-58
2023/05/28 08:30:08;;;;;;;9.07;5.30;;;24.40;99.90;;;;;;5032751;28;20083;-58
2023/05/28 08:32:33;;;;;;;;;;;24.50;99.90;;;;;;5033220;28;20116;-58
2023/05/28 08:34:59;;;;;;;6.63;4.82;;;24.50;99.90;;;;;;5032917;28;19939;-58
2023/05/28 08:37:25;;;;;;;8.15;6.07;;;24.50;99.90;;;;;;5032632;28;20047;-58
2023/05/28 08:39:51;;;;;;;7.68;5.25;;;24.50;99.90;;;;;;5032675;28;20037;-58
2023/05/28 08:42:17;;;;;;;9.05;5.70;;;24.50;99.90;;;;;;5032730;28;20083;-58
2023/05/28 08:44:43;;;;;;;6.28;5.57;;;24.50;99.90;;;;;;5032748;28;20033;-58
2023/05/28 08:47:09;;;;;;;5.80;5.20;;;24.50;99.90;;;;;;5032703;28;20458;-59
2023/05/28 08:49:53;;;;;;;5.65;4.60;;;24.50;99.90;;;;;;5032197;28;20052;-58
2023/05/28 08:52:20;;;;;;;7.80;5.10;;;24.50;99.90;;;;;;5032654;28;20034;-58
2023/05/28 08:54:47;;;;;;;5.88;5.03;;;24.50;99.90;;;;;;5032756;28;20026;-58
2023/05/28 08:57:14;;;;;;;7.72;5.50;;;24.50;99.90;;;;;;5032706;28;20029;-58
2023/05/28 08:59:40;;;;;;;7.63;5.35;;;24.50;99.90;;;;;;5031318;28;20500;-58
2023/05/28 09:02:08;;;;;;;7.63;5.05;;;24.50;99.90;;;;;;5031036;28;20073;-58
2023/05/28 09:04:34;;;;;;;6.32;4.82;;;24.50;99.90;;;;;;5032628;28;20071;-58
2023/05/28 09:07:00;;;;;;;9.52;5.65;;;24.50;99.90;;;;;;5019389;28;20089;-58
2023/05/28 09:09:26;;;;;;;6.72;5.13;;;24.50;99.90;;;;;;5032087;28;20489;-58
2023/05/28 09:12:02;;;;;;;6.22;4.82;;;24.50;99.90;;;;;;5032557;28;20075;-58
2023/05/28 09:14:28;;;;;;;7.55;4.72;;;24.50;99.90;;;;;;5032423;28;20021;-58
2023/05/28 09:16:53;;;;;;;9.00;4.80;;;24.50;99.90;;;;;;5033008;28;20022;-58
2023/05/28 09:19:19;;;;;;;7.05;5.07;;;24.50;99.90;;;;;;5034801;28;20030;-58
2023/05/28 09:21:56;;;;;;;6.80;4.72;;;24.50;99.90;;;;;;5036362;28;20077;-58
2023/05/28 09:24:25;;;;;;;6.20;4.60;;;24.50;99.90;;;;;;5036469;28;20434;-58
2023/05/28 09:26:57;;;;;;;9.50;4.90;;;24.50;99.90;;;;;;5036002;28;20255;-58
2023/05/28 09:29:24;;;;;;;7.47;4.80;;;24.50;99.90;;;;;;5036089;28;20026;-59
2023/05/28 09:31:58;;;;;;;5.28;4.63;;;24.60;99.90;;;;;;5035918;28;20067;-59
2023/05/28 09:34:31;;;;;;;6.78;4.97;;;24.50;99.90;;;;;;5036119;28;20029;-59
2023/05/28 09:37:04;;;;;;;6.20;4.32;;;24.60;99.90;;;;;;5036015;28;20402;-58
2023/05/28 09:39:31;;;;;;;6.57;4.32;;;24.60;99.90;;;;;;5035932;28;20069;-58
2023/05/28 09:42:03;;;;;;;6.63;4.70;;;24.50;99.90;;;;;;5035917;28;20021;-58
2023/05/28 09:44:39;;;;;;;7.85;4.82;;;24.60;99.90;;;;;;5036050;28;20104;-58
2023/05/28 09:47:16;;;;;;;9.35;5.95;;;24.60;99.90;;;;;;5035739;28;20216;-59
2023/05/28 09:49:49;;;;;;;7.72;5.28;;;24.60;99.90;;;;;;5035538;28;20025;-58
2023/05/28 09:52:22;;;;;;;6.53;4.47;;;24.60;99.90;;;;;;5035353;28;20017;-58
2023/05/28 09:54:53;;;;;;;7.40;5.38;;;24.60;99.90;;;;;;5035429;28;20499;-58
2023/05/28 09:57:25;;;;;;;6.68;5.03;;;24.60;99.90;;;;;;5034046;28;20097;-57
2023/05/28 09:59:55;;;;;;;5.80;4.68;;;24.60;99.90;;;;;;5035407;28;20481;-57
2023/05/28 10:03:05;;;;;;;7.20;4.65;;;24.60;99.90;;;;;;5035339;28;20124;-57
2023/05/28 10:05:33;;;;;;;4.85;4.22;;;24.60;99.90;;;;;;5004789;28;20485;-57
2023/05/28 10:08:01;;;;;;;7.90;5.22;;;24.60;99.90;;;;;;5027689;28;20057;-56
2023/05/28 10:10:30;;;;;;;6.57;4.97;;;24.60;99.90;;;;;;5035387;28;20021;-58
2023/05/28 10:12:58;;;;;;;5.60;4.35;;;24.60;99.90;;;;;;5033787;28;20037;-57
2023/05/28 10:15:24;;;;;;;12.18;5.72;;;24.60;99.90;;;;;;5035248;28;20053;-59
2023/05/28 10:17:51;;;;;;;8.05;4.90;;;24.60;99.90;;;;;;5035218;28;20040;-58
2023/05/28 10:20:18;;;;;;;6.75;5.13;;;24.70;99.90;;;;;;5035082;28;20037;-58
2023/05/28 10:22:44;;;;;;;7.57;4.97;;;24.70;99.90;;;;;;5033838;28;20049;-58
2023/05/28 10:25:11;;;;;;;6.97;4.07;;;24.70;99.90;;;;;;5034736;28;20033;-58
2023/05/28 10:27:44;;;;;;;5.45;4.35;;;24.70;99.90;;;;;;5034213;28;20021;-57
2023/05/28 10:30:12;;;;;;;7.95;4.40;;;24.70;99.90;;;;;;5033699;28;20025;-57
2023/05/28 10:32:40;;;;;;;6.47;5.05;;;24.70;99.90;;;;;;5034914;28;20021;-57
2023/05/28 10:35:09;;;;;;;9.30;5.93;;;24.70;99.90;;;;;;5034745;28;20436;-57
2023/05/28 10:37:35;;;;;;;8.50;6.03;;;24.70;99.90;;;;;;5035034;28;20104;-58
2023/05/28 10:40:02;;;;;;;8.20;6.57;;;24.70;99.90;;;;;;5034634;28;20033;-58
2023/05/28 10:42:27;;;;;;;10.55;7.05;;;24.70;99.90;;;;;;5034576;28;20014;-58
2023/05/28 10:44:59;;;;;;;11.30;7.35;;;24.70;99.90;;;;;;5034531;28;20504;-57
2023/05/28 10:47:52;;;;;;;12.18;8.25;;;24.70;99.90;;;;;;5033451;28;20104;-57
2023/05/28 10:50:19;;;;;;;11.30;8.13;;;24.70;99.90;;;;;;5031400;28;20363;-58
2023/05/28 10:53:12;;;;;;;10.85;7.18;;;24.70;99.90;;;;;;5034524;28;20026;-58
2023/05/28 10:55:50;;;;;;;8.65;7.35;;;24.70;99.90;;;;;;5021355;28;20040;-59
2023/05/28 10:58:27;;;;;;;10.55;7.53;;;24.70;99.90;;;;;;5034332;28;20057;-58
2023/05/28 11:01:13;;;;;;;10.63;7.50;;;24.70;99.90;;;;;;5033994;28;20049;-58
2023/05/28 11:03:47;;;;;;;11.52;6.70;;;24.80;99.90;;;;;;5028827;28;20361;-59
2023/05/28 11:06:13;;;;;;;11.52;7.55;;;24.80;99.90;;;;;;5033902;28;20083;-58
2023/05/28 11:08:47;;;;;;;11.98;7.43;;;24.80;99.90;;;;;;5034138;28;20013;-58
2023/05/28 11:11:15;;;;;;;11.00;7.53;;;24.80;99.90;;;;;;5033979;28;20112;-58
2023/05/28 11:13:46;;;;;;;9.45;6.65;;;24.80;99.90;;;;;;5032876;28;20417;-58
2023/05/28 11:16:14;;;;;;;12.70;7.95;;;24.80;99.90;;;;;;5034162;28;20029;-57
2023/05/28 11:18:58;;;;;;;10.05;7.10;;;24.80;99.90;;;;;;5034310;28;20030;-57
2023/05/28 11:21:24;;;;;;;13.40;8.98;;;24.80;99.90;;;;;;5033278;28;20132;-60
2023/05/28 11:24:03;;;;;;;17.08;9.48;;;24.80;99.90;;;;;;5033599;28;20097;-61
2023/05/28 11:26:31;;;;;;;14.75;8.25;;;24.80;99.90;;;;;;5033313;28;20025;-62
2023/05/28 11:28:57;;;;;;;15.68;8.95;;;24.80;99.90;;;;;;5032598;28;20033;-61
2023/05/28 11:31:22;;;;;;;19.35;8.18;;;24.90;99.90;;;;;;5034181;28;20386;-61
2023/05/28 11:33:49;;;;;;;17.40;6.90;;;24.90;99.90;;;;;;5033917;28;20479;-60
2023/05/28 11:36:15;;;;;;;14.90;7.07;;;24.90;99.90;;;;;;5035221;28;20021;-59
2023/05/28 11:38:40;;;;;;;13.50;6.05;;;24.90;99.90;;;;;;5032538;28;20028;-59
2023/05/28 11:41:06;;;;;;;11.27;5.70;;;24.90;99.90;;;;;;5032347;28;20049;-59
2023/05/28 11:43:32;;;;;;;12.00;6.63;;;24.90;99.90;;;;;;5033120;28;20018;-58
2023/05/28 11:46:00;;;;;;;20.08;7.72;;;24.90;99.90;;;;;;5031886;28;20040;-57
2023/05/28 11:48:27;;;;;;;8.98;6.78;;;24.90;99.90;;;;;;5032944;28;20037;-58
2023/05/28 11:51:00;;;;;;;16.17;6.95;;;24.90;99.90;;;;;;5033266;28;20105;-58
2023/05/28 11:53:46;;;;;;;15.35;6.93;;;24.90;99.90;;;;;;5033404;28;20053;-58
2023/05/28 11:56:13;;;;;;;12.93;7.65;;;25.00;99.90;;;;;;5033138;28;20104;-59
2023/05/28 11:58:45;;;;;;;13.68;7.28;;;25.00;99.90;;;;;;5032795;28;20025;-58
2023/05/28 12:01:17;;;;;;;13.23;6.47;;;25.00;99.90;;;;;;5031642;28;20052;-59
2023/05/28 12:03:43;;;;;;;13.82;7.50;;;25.00;99.90;;;;;;5032892;28;20037;-59
2023/05/28 12:06:11;;;;;;;16.95;7.25;;;25.00;99.90;;;;;;5032062;28;20030;-59
2023/05/28 12:08:40;;;;;;;12.05;6.55;;;25.00;99.90;;;;;;5032658;28;20533;-59
2023/05/28 12:11:08;;;;;;;13.98;6.93;;;25.00;99.90;;;;;;5032301;28;20060;-58
2023/05/28 12:13:35;;;;;;;20.13;8.10;;;25.00;99.90;;;;;;5031626;28;20404;-58
2023/05/28 12:16:11;;;;;;;17.40;9.55;;;25.10;99.90;;;;;;5032478;28;20025;-57
2023/05/28 12:18:43;;;;;;;14.27;8.50;;;25.10;99.90;;;;;;5020188;28;20029;-58
2023/05/28 12:21:18;;;;;;;15.73;9.57;;;25.10;99.90;;;;;;5030719;28;20041;-62
2023/05/28 12:23:44;;;;;;;15.02;8.90;;;25.10;99.90;;;;;;5032650;28;20014;-59
2023/05/28 12:26:13;;;;;;;16.23;9.73;;;25.10;99.90;;;;;;5032888;28;20048;-61
2023/05/28 12:28:40;;;;;;;12.90;8.07;;;25.10;99.90;;;;;;5031917;28;20018;-60
2023/05/28 12:31:07;;;;;;;18.98;9.55;;;25.10;99.90;;;;;;5032869;28;20048;-61
2023/05/28 12:33:33;;;;;;;15.65;9.40;;;25.10;99.90;;;;;;5032168;28;20014;-60
2023/05/28 12:35:59;;;;;;;14.43;8.15;;;25.10;99.90;;;;;;5032433;28;20374;-59
2023/05/28 12:38:26;;;;;;;14.32;7.75;;;25.10;99.90;;;;;;5032451;28;20028;-58
2023/05/28 12:40:52;;;;;;;13.77;7.32;;;25.10;99.90;;;;;;5031110;28;20038;-57
2023/05/28 12:43:18;;;;;;;12.25;7.78;;;25.20;99.90;;;;;;5032248;28;20382;-59
2023/05/28 12:45:44;;;;;;;12.82;7.15;;;25.20;99.90;;;;;;5032172;28;20037;-56